Time;durP1;ratioP1;P1;durP2;ratioP2;P2;SDS_P1;SDS_P2;PMS_P1;PMS_P2;Temp;Humidity;BMP_temperature;BMP_pressure;BME280_temperature;BME280_humidity;BME280_pressure;Samples;Min_cycle;Max_cycle;Signal;HPM_P1;HPM_P2
2022/10/18 00:00:28;;;;;;;;;15.25;12.75;;;;;18.92;81.20;102160.72;5117651;27;73052;-82
2022/10/18 00:02:54;;;;;;;;;13.25;13.25;;;;;18.94;81.42;102172.09;5117102;27;68016;-82
2022/10/18 00:05:19;;;;;;;;;17.25;16.25;;;;;18.95;81.42;102176.44;5117707;27;69548;-82
2022/10/18 00:07:44;;;;;;;;;17.75;15.25;;;;;18.99;81.28;102171.91;5117547;27;69003;-82
2022/10/18 00:10:10;;;;;;;;;15.00;13.25;;;;;18.99;80.96;102167.47;5116333;27;66204;-82
2022/10/18 00:12:36;;;;;;;;;19.25;16.75;;;;;19.01;80.93;102167.41;5117786;27;62578;-81
2022/10/18 00:15:02;;;;;;;;;18.75;14.00;;;;;19.01;80.96;102173.53;5099855;27;45537;-82
2022/10/18 00:17:28;;;;;;;;;18.25;13.50;;;;;19.00;81.15;102168.31;5116592;27;47484;-82
2022/10/18 00:19:53;;;;;;;;;16.25;14.75;;;;;18.99;81.29;102175.41;5119576;27;45423;-82
2022/10/18 00:22:19;;;;;;;;;18.00;16.25;;;;;18.99;81.42;102188.59;5138088;27;65607;-82
2022/10/18 00:24:44;;;;;;;;;13.25;13.25;;;;;18.99;81.38;102187.75;5138009;27;70588;-82
2022/10/18 00:27:09;;;;;;;;;16.75;12.25;;;;;19.01;81.07;102184.09;5138708;27;45971;-82
2022/10/18 00:29:35;;;;;;;;;14.25;13.50;;;;;19.04;80.99;102178.72;5138099;27;64408;-81
2022/10/18 00:32:00;;;;;;;;;12.75;12.75;;;;;19.03;81.03;102182.25;5138731;27;45428;-82
2022/10/18 00:34:25;;;;;;;;;16.25;13.25;;;;;19.01;81.04;102183.25;5119748;27;50237;-81
2022/10/18 00:36:50;;;;;;;;;16.00;12.00;;;;;19.01;80.87;102185.91;5119860;27;50515;-82
2022/10/18 00:39:18;;;;;;;;;13.75;13.75;;;;;19.00;81.10;102182.41;5137756;27;65642;-82
2022/10/18 00:41:44;;;;;;;;;19.00;16.75;;;;;19.02;81.26;102188.47;5119026;27;45434;-81
2022/10/18 00:44:10;;;;;;;;;17.75;15.25;;;;;19.01;80.94;102189.38;5120095;27;45403;-82
2022/10/18 00:46:37;;;;;;;;;20.67;15.67;;;;;18.97;81.19;102192.22;5138197;27;45362;-81
2022/10/18 00:49:07;;;;;;;;;20.25;18.25;;;;;18.92;81.21;102200.31;5119873;27;45758;-82
2022/10/18 00:51:40;;;;;;;;;20.25;14.50;;;;;18.92;81.43;102197.66;5120037;27;45288;-81
2022/10/18 00:54:06;;;;;;;;;18.50;17.75;;;;;18.95;81.18;102187.00;5120054;27;45466;-82
2022/10/18 00:56:32;;;;;;;;;15.25;11.25;;;;;18.98;81.39;102191.28;5137435;27;69745;-82
2022/10/18 00:58:58;;;;;;;;;18.50;17.00;;;;;19.00;81.00;102187.69;5119690;27;45740;-82
2022/10/18 01:01:23;;;;;;;;;16.75;14.00;;;;;19.02;81.25;102195.50;5118786;27;63338;-82
2022/10/18 01:03:49;;;;;;;;;13.00;12.25;;;;;19.00;81.08;102194.72;5138464;27;45308;-82
2022/10/18 01:06:15;;;;;;;;;17.75;14.00;;;;;18.99;81.13;102199.16;5119783;27;47146;-82
2022/10/18 01:09:09;;;;;;;;;15.75;13.25;;;;;18.97;81.08;102194.88;5119062;27;66649;-82
2022/10/18 01:11:54;;;;;;;;;16.75;14.25;;;;;18.96;81.19;102207.19;5111813;27;45540;-82
2022/10/18 01:14:39;;;;;;;;;19.00;12.75;;;;;18.95;81.29;102198.41;5119440;27;45533;-82
2022/10/18 01:17:27;;;;;;;;;14.25;13.25;;;;;18.99;81.36;102196.50;5119673;27;45244;-82
2022/10/18 01:20:15;;;;;;;;;22.00;16.50;;;;;19.00;81.19;102211.44;5119228;27;45463;-81
2022/10/18 01:22:44;;;;;;;;;18.50;14.00;;;;;18.98;81.20;102215.91;5138197;27;45383;-82
2022/10/18 01:25:16;;;;;;;;;17.00;14.25;;;;;18.97;81.31;102219.47;5138259;27;45524;-82
2022/10/18 01:28:15;;;;;;;;;20.50;14.50;;;;;18.93;81.01;102210.81;5137782;27;46485;-82
2022/10/18 01:30:50;;;;;;;;;18.75;15.00;;;;;18.91;81.52;102212.66;5137530;27;45657;-82
2022/10/18 01:33:37;;;;;;;;;16.50;11.75;;;;;18.93;81.36;102218.72;5102302;27;45227;-82
2022/10/18 01:36:14;;;;;;;;;12.75;11.75;;;;;18.98;81.25;102222.94;5119451;27;45520;-82
2022/10/18 01:38:41;;;;;;;;;17.00;14.00;;;;;18.99;81.10;102220.25;5119040;27;45455;-81
2022/10/18 01:41:08;;;;;;;;;15.50;13.75;;;;;19.01;80.95;102214.91;5102120;27;45912;-81
2022/10/18 01:43:34;;;;;;;;;14.50;12.00;;;;;19.00;80.90;102210.56;5118308;27;64180;-82
2022/10/18 01:46:00;;;;;;;;;21.75;14.75;;;;;18.98;80.92;102205.34;5119031;27;57061;-82
2022/10/18 01:48:25;;;;;;;;;25.50;20.00;;;;;18.95;80.99;102211.59;5119106;27;46421;-82
2022/10/18 01:50:52;;;;;;;;;28.00;23.00;;;;;18.91;80.83;102207.38;5118318;27;65247;-81
2022/10/18 01:53:25;;;;;;;;;23.75;20.50;;;;;18.89;81.18;102200.47;5104766;27;45378;-82
2022/10/18 01:56:03;;;;;;;;;23.25;20.75;;;;;18.88;80.99;102196.94;5141569;27;45378;-82
2022/10/18 01:58:45;;;;;;;;;20.50;18.75;;;;;18.85;80.30;102202.34;5122458;27;45707;-82
2022/10/18 02:01:19;;;;;;;;;18.00;14.75;;;;;18.81;80.69;102194.63;5122656;27;45721;-82
2022/10/18 02:03:46;;;;;;;;;17.75;15.25;;;;;18.74;80.49;102199.25;5122819;27;45460;-82
2022/10/18 02:06:15;;;;;;;;;23.00;17.75;;;;;18.66;80.64;102201.34;5121775;27;70431;-82
2022/10/18 02:08:48;;;;;;;;;21.25;18.75;;;;;18.61;81.06;102203.28;5141224;27;45443;-82
2022/10/18 02:11:15;;;;;;;;;19.00;15.00;;;;;18.60;81.00;102205.06;5122621;27;45437;-81
2022/10/18 02:13:53;;;;;;;;;21.25;18.75;;;;;18.56;80.98;102201.69;5122471;27;45413;-82
2022/10/18 02:16:23;;;;;;;;;20.25;17.00;;;;;18.54;80.70;102202.69;5122562;27;45319;-81
2022/10/18 02:18:59;;;;;;;;;26.00;22.25;;;;;18.50;81.27;102196.66;5122329;27;45729;-82
2022/10/18 02:21:26;;;;;;;;;26.50;20.00;;;;;18.47;81.11;102198.56;5140705;27;45729;-81
2022/10/18 02:23:52;;;;;;;;;24.00;17.75;;;;;18.38;81.31;102203.25;5121951;27;59817;-82
2022/10/18 02:26:18;;;;;;;;;20.00;18.00;;;;;18.33;81.42;102207.00;5122441;27;45259;-82
2022/10/18 02:28:44;;;;;;;;;24.75;20.00;;;;;18.28;81.98;102204.53;5120846;27;73112;-82
2022/10/18 02:31:43;;;;;;;;;21.25;16.00;;;;;18.27;81.48;102201.97;5121264;27;71231;-82
2022/10/18 02:34:14;;;;;;;;;21.75;15.75;;;;;18.27;81.36;102208.09;5106695;27;45391;-82
2022/10/18 02:36:43;;;;;;;;;19.75;18.75;;;;;18.24;81.03;102205.59;5140736;27;45502;-82
2022/10/18 02:39:15;;;;;;;;;18.25;16.50;;;;;18.22;81.25;102215.34;5121901;27;47735;-82
2022/10/18 02:41:42;;;;;;;;;18.25;16.75;;;;;18.22;81.03;102204.78;5121741;27;45531;-82
2022/10/18 02:44:07;;;;;;;;;22.50;20.25;;;;;18.18;80.42;102205.78;5122324;27;45558;-82
2022/10/18 02:46:33;;;;;;;;;23.75;18.50;;;;;18.11;80.75;102209.59;5122308;27;45391;-82
2022/10/18 02:48:58;;;;;;;;;27.25;20.00;;;;;18.02;80.41;102212.56;5104599;27;47270;-81
2022/10/18 02:51:24;;;;;;;;;22.50;19.75;;;;;17.95;80.93;102217.19;5121146;27;62711;-82
2022/10/18 02:53:49;;;;;;;;;25.75;19.75;;;;;17.92;81.37;102227.84;5140556;27;45290;-81
2022/10/18 02:56:15;;;;;;;;;18.50;17.50;;;;;17.92;81.70;102228.72;5139354;27;63071;-82
2022/10/18 02:58:41;;;;;;;;;19.00;16.00;;;;;17.95;81.23;102227.72;5140300;27;47401;-82
2022/10/18 03:01:06;;;;;;;;;20.25;17.25;;;;;17.92;81.51;102223.44;5104003;27;57275;-82
2022/10/18 03:03:31;;;;;;;;;28.50;19.00;;;;;17.91;81.62;102220.88;5139392;27;45510;-81
2022/10/18 03:05:57;;;;;;;;;18.50;17.75;;;;;17.89;81.45;102226.19;5139319;27;57978;-81
2022/10/18 03:08:22;;;;;;;;;19.00;18.50;;;;;17.87;81.69;102235.06;5139251;27;66916;-81
2022/10/18 03:10:47;;;;;;;;;21.50;17.50;;;;;17.86;81.55;102230.69;5120897;27;55796;-82
2022/10/18 03:13:13;;;;;;;;;16.75;14.00;;;;;17.89;81.97;102231.44;5121799;27;45333;-81
2022/10/18 03:15:38;;;;;;;;;18.50;16.50;;;;;17.91;81.67;102231.41;5140088;27;45294;-81
2022/10/18 03:18:04;;;;;;;;;19.25;18.50;;;;;17.91;81.85;102236.66;5121628;27;45340;-82
2022/10/18 03:20:29;;;;;;;;;18.00;14.75;;;;;17.88;81.63;102239.41;5104013;27;45543;-82
2022/10/18 03:22:55;;;;;;;;;15.75;11.25;;;;;17.87;81.68;102242.97;5139269;27;62018;-82
2022/10/18 03:25:20;;;;;;;;;17.00;15.75;;;;;17.86;81.71;102243.88;5138876;27;63616;-82
2022/10/18 03:27:45;;;;;;;;;19.75;17.00;;;;;17.84;81.86;102251.78;5121245;27;46742;-81
2022/10/18 03:30:12;;;;;;;;;16.75;15.50;;;;;17.87;81.75;102253.50;5138993;27;66446;-82
2022/10/18 03:32:37;;;;;;;;;17.75;15.50;;;;;17.87;81.75;102256.13;5139991;27;45512;-81
2022/10/18 03:35:04;;;;;;;;;27.00;22.75;;;;;17.85;81.55;102261.47;5138849;27;68867;-82
2022/10/18 03:37:30;;;;;;;;;24.50;18.50;;;;;17.84;81.96;102264.97;5139382;27;46570;-82
2022/10/18 03:39:55;;;;;;;;;26.50;16.00;;;;;17.86;82.33;102257.88;5120818;27;45434;-82
2022/10/18 03:42:20;;;;;;;;;17.75;15.25;;;;;17.88;82.30;102261.31;5120259;27;67883;-82
2022/10/18 03:44:46;;;;;;;;;17.00;15.50;;;;;17.94;82.15;102265.53;5138820;27;64288;-81
2022/10/18 03:47:11;;;;;;;;;19.00;14.50;;;;;17.98;81.97;102265.38;5139522;27;45465;-82
2022/10/18 03:49:37;;;;;;;;;19.00;14.50;;;;;18.01;81.98;102266.16;5121167;27;45462;-82
2022/10/18 03:52:02;;;;;;;;;16.25;13.25;;;;;18.03;81.76;102265.19;5139402;27;45433;-82
2022/10/18 03:54:27;;;;;;;;;19.50;14.75;;;;;18.05;81.77;102263.34;5139200;27;45312;-82
2022/10/18 03:56:53;;;;;;;;;22.75;16.50;;;;;18.07;81.57;102268.56;5138289;27;73225;-82
2022/10/18 03:59:18;;;;;;;;;25.25;20.00;;;;;18.04;81.58;102266.94;5138740;27;63233;-82
2022/10/18 04:01:43;;;;;;;;;19.00;16.50;;;;;18.02;82.05;102274.03;5139385;27;45289;-82
2022/10/18 04:04:09;;;;;;;;;19.00;19.00;;;;;18.02;81.95;102271.38;5138776;27;56371;-82
2022/10/18 04:06:34;;;;;;;;;21.25;17.25;;;;;18.05;81.99;102276.53;5139064;27;46870;-81
2022/10/18 04:08:59;;;;;;;;;17.75;15.25;;;;;18.06;81.83;102270.34;5138398;27;55791;-81
2022/10/18 04:11:25;;;;;;;;;19.75;19.00;;;;;18.05;81.97;102279.16;5120695;27;45405;-82
2022/10/18 04:13:50;;;;;;;;;22.00;19.00;;;;;18.04;81.92;102280.09;5120644;27;45385;-82
2022/10/18 04:16:15;;;;;;;;;26.75;18.50;;;;;18.03;81.69;102281.00;5119164;27;70590;-82
2022/10/18 04:18:41;;;;;;;;;22.25;18.75;;;;;18.01;81.85;102285.47;5119649;27;67482;-82
2022/10/18 04:21:07;;;;;;;;;24.00;18.75;;;;;17.98;81.73;102275.06;5138100;27;59021;-82
2022/10/18 04:23:32;;;;;;;;;25.00;16.00;;;;;17.96;81.76;102279.53;5102115;27;63239;-82
2022/10/18 04:25:58;;;;;;;;;22.75;17.00;;;;;17.97;81.83;102274.19;5119266;27;75177;-81
2022/10/18 04:28:23;;;;;;;;;14.25;11.00;;;;;17.96;81.41;102277.75;5137854;27;68498;-82
2022/10/18 04:30:52;;;;;;;;;16.25;16.00;;;;;17.92;80.93;102280.53;5119645;27;62396;-82
2022/10/18 04:33:18;;;;;;;;;18.75;16.25;;;;;17.85;80.94;102273.75;5120369;27;45422;-82
2022/10/18 04:35:43;;;;;;;;;19.50;14.50;;;;;17.78;81.04;102275.72;5120196;27;45276;-82
2022/10/18 04:38:09;;;;;;;;;17.00;14.00;;;;;17.77;81.44;102274.88;5119696;27;45298;-81
2022/10/18 04:40:34;;;;;;;;;21.75;14.50;;;;;17.77;81.16;102279.25;5120270;27;45715;-81
2022/10/18 04:42:59;;;;;;;;;19.00;16.25;;;;;17.74;80.83;102282.88;5137820;27;65089;-82
2022/10/18 04:45:25;;;;;;;;;16.50;15.25;;;;;17.69;80.88;102276.88;5119313;27;67178;-81
2022/10/18 04:47:50;;;;;;;;;15.75;13.75;;;;;17.63;80.68;102285.00;5137931;27;64005;-81
2022/10/18 04:50:15;;;;;;;;;20.00;18.00;;;;;17.56;80.76;102286.97;5119527;27;59301;-82
2022/10/18 04:52:41;;;;;;;;;19.50;17.75;;;;;17.51;80.74;102285.41;5138353;27;45410;-82
2022/10/18 04:55:06;;;;;;;;;18.00;16.00;;;;;17.46;81.23;102288.22;5118985;27;70595;-82
2022/10/18 04:57:32;;;;;;;;;18.25;17.00;;;;;17.43;80.88;102290.94;5138374;27;45320;-82
2022/10/18 04:59:57;;;;;;;;;14.50;14.25;;;;;17.38;80.79;102293.72;5137542;27;68210;-82
2022/10/18 05:02:22;;;;;;;;;16.25;12.50;;;;;17.34;81.00;102288.59;5137635;27;64205;-82
2022/10/18 05:04:48;;;;;;;;;16.25;15.00;;;;;17.30;81.35;102292.25;5137281;27;68676;-82
2022/10/18 05:07:13;;;;;;;;;17.75;14.50;;;;;17.28;80.94;102291.44;5137119;27;70941;-82
2022/10/18 05:09:38;;;;;;;;;20.50;15.25;;;;;17.26;81.33;102295.91;5119966;27;45467;-81
2022/10/18 05:12:04;;;;;;;;;19.50;17.25;;;;;17.24;81.34;102295.09;5118644;27;70480;-82
2022/10/18 05:14:29;;;;;;;;;19.00;13.00;;;;;17.22;81.41;102295.13;5137991;27;46771;-82
2022/10/18 05:16:54;;;;;;;;;22.00;17.00;;;;;17.24;81.92;102295.94;5137417;27;62910;-82
2022/10/18 05:19:20;;;;;;;;;20.25;14.50;;;;;17.27;81.84;102298.47;5137503;27;59920;-82
2022/10/18 05:21:45;;;;;;;;;21.00;16.75;;;;;17.30;82.10;102298.38;5137543;27;45575;-82
2022/10/18 05:24:11;;;;;;;;;24.50;17.00;;;;;17.32;82.19;102303.59;5118864;27;61833;-82
2022/10/18 05:26:36;;;;;;;;;17.50;16.25;;;;;17.36;82.02;102300.78;5119026;27;45420;-82
2022/10/18 05:29:02;;;;;;;;;20.00;17.00;;;;;17.42;82.13;102305.00;5137118;27;55007;-82
2022/10/18 05:31:27;;;;;;;;;15.00;14.75;;;;;17.46;82.18;102304.00;5114289;27;45473;-82
2022/10/18 05:33:53;;;;;;;;;19.25;14.75;;;;;17.51;82.22;102302.06;5142258;27;68042;-81
2022/10/18 05:36:18;;;;;;;;;19.75;17.00;;;;;17.54;82.06;102295.84;5131393;27;66264;-82
2022/10/18 05:38:44;;;;;;;;;18.00;16.50;;;;;17.56;82.01;102294.88;5137613;27;45579;-82
2022/10/18 05:41:11;;;;;;;;;26.75;18.00;;;;;17.59;82.17;102286.03;5137614;27;45433;-82
2022/10/18 05:43:36;;;;;;;;;23.50;17.75;;;;;17.61;81.83;102290.31;5137444;27;45472;-81
2022/10/18 05:46:03;;;;;;;;;18.25;17.00;;;;;17.63;81.93;102294.69;5119115;27;45324;-81
2022/10/18 05:48:28;;;;;;;;;17.75;15.25;;;;;17.63;82.15;102297.31;5137765;27;45343;-82
2022/10/18 05:50:57;;;;;;;;;18.50;16.25;;;;;17.67;81.98;102306.84;5118083;27;57812;-82
2022/10/18 05:53:22;;;;;;;;;20.25;18.50;;;;;17.69;82.07;102305.84;5118944;27;46211;-82
2022/10/18 05:55:47;;;;;;;;;17.00;16.25;;;;;17.74;81.83;102309.19;5136358;27;74223;-82
2022/10/18 05:58:13;;;;;;;;;23.00;17.50;;;;;17.77;81.83;102310.84;5118326;27;61463;-82
2022/10/18 06:00:38;;;;;;;;;18.25;14.25;;;;;17.78;81.69;102310.81;5137468;27;45225;-82
2022/10/18 06:03:03;;;;;;;;;13.25;13.00;;;;;17.80;81.94;102308.13;5117981;27;47177;-82
2022/10/18 06:05:29;;;;;;;;;18.00;13.00;;;;;17.82;81.85;102319.47;5115572;27;63711;-82
2022/10/18 06:07:55;;;;;;;;;16.75;13.25;;;;;17.83;81.67;102318.56;5129938;27;64146;-81
2022/10/18 06:10:20;;;;;;;;;19.00;16.00;;;;;17.85;81.80;102316.78;5118439;27;45451;-82
2022/10/18 06:12:45;;;;;;;;;17.25;14.75;;;;;17.86;81.54;102309.72;5117086;27;48088;-81
2022/10/18 06:15:11;;;;;;;;;15.50;14.75;;;;;17.86;81.71;102307.94;5126611;27;67055;-81
2022/10/18 06:17:36;;;;;;;;;18.50;13.00;;;;;17.86;81.65;102315.84;5117951;27;61449;-80
2022/10/18 06:20:02;;;;;;;;;17.00;13.50;;;;;17.87;81.45;102322.00;5115551;27;53986;-80
2022/10/18 06:22:27;;;;;;;;;13.75;12.00;;;;;17.87;81.49;102329.91;5099632;27;47081;-80
2022/10/18 06:24:52;;;;;;;;;16.25;13.75;;;;;17.88;81.63;102328.97;5115562;27;58943;-81
2022/10/18 06:27:17;;;;;;;;;13.50;10.00;;;;;17.88;81.24;102326.34;5121911;27;69550;-81
2022/10/18 06:29:43;;;;;;;;;17.75;14.00;;;;;17.89;81.23;102334.19;5121292;27;67236;-80
2022/10/18 06:32:08;;;;;;;;;17.50;13.00;;;;;17.91;81.56;102332.34;5116645;27;46548;-80
2022/10/18 06:34:34;;;;;;;;;19.00;14.75;;;;;17.94;81.60;102336.66;5107388;27;72964;-80
2022/10/18 06:36:59;;;;;;;;;15.25;15.00;;;;;17.97;81.41;102336.56;5129806;27;45740;-80
2022/10/18 06:39:25;;;;;;;;;17.25;14.00;;;;;17.98;81.42;102336.50;5120522;27;45419;-80
2022/10/18 06:41:51;;;;;;;;;17.50;13.75;;;;;18.01;81.48;102347.84;5091612;27;46255;-79
2022/10/18 06:44:16;;;;;;;;;19.00;14.75;;;;;18.03;81.33;102348.66;5121820;27;45337;-81
2022/10/18 06:46:42;;;;;;;;;21.00;14.00;;;;;18.04;81.41;102348.59;5140502;27;45903;-80
2022/10/18 06:49:08;;;;;;;;;23.50;16.75;;;;;18.05;81.24;102350.31;5140053;27;45307;-80
2022/10/18 06:51:34;;;;;;;;;16.25;14.00;;;;;18.05;81.22;102349.44;5140258;27;47310;-80
2022/10/18 06:53:59;;;;;;;;;15.50;15.00;;;;;18.04;81.34;102351.25;5139369;27;71279;-80
2022/10/18 06:56:24;;;;;;;;;15.25;13.50;;;;;18.05;81.42;102347.66;5140685;27;45725;-80
2022/10/18 06:58:50;;;;;;;;;16.00;11.50;;;;;18.07;81.23;102353.78;5139391;27;66716;-80
2022/10/18 07:01:16;;;;;;;;;11.00;10.00;;;;;18.09;81.52;102351.94;5139319;27;70278;-80
2022/10/18 07:03:42;;;;;;;;;12.75;11.75;;;;;18.13;81.31;102363.25;5121467;27;45330;-80
2022/10/18 07:06:10;;;;;;;;;15.75;11.75;;;;;18.15;81.31;102359.63;5121854;27;45402;-80
2022/10/18 07:08:36;;;;;;;;;15.50;13.50;;;;;18.19;81.48;102363.03;5121758;27;45584;-80
2022/10/18 07:11:01;;;;;;;;;15.75;13.50;;;;;18.22;81.31;102357.66;5140073;27;45591;-80
2022/10/18 07:13:29;;;;;;;;;12.75;12.25;;;;;18.26;80.93;102356.63;5139063;27;73360;-80
2022/10/18 07:16:05;;;;;;;;;13.75;12.75;;;;;18.30;81.07;102360.84;5121877;27;45409;-80
2022/10/18 07:18:35;;;;;;;;;17.50;14.50;;;;;18.34;81.12;102367.75;5139940;27;45291;-80
2022/10/18 07:21:06;;;;;;;;;19.75;13.75;;;;;18.40;80.61;102374.56;5139689;27;47359;-80
2022/10/18 07:23:36;;;;;;;;;17.00;14.75;;;;;18.45;80.93;102377.06;5140016;27;45749;-80
2022/10/18 07:26:03;;;;;;;;;14.00;14.00;;;;;18.49;80.55;102383.94;5140335;27;45441;-80
2022/10/18 07:28:29;;;;;;;;;15.75;14.50;;;;;18.53;80.58;102380.25;5104341;27;45384;-80
2022/10/18 07:30:54;;;;;;;;;19.00;15.25;;;;;18.58;80.56;102388.88;5139434;27;46184;-80
2022/10/18 07:33:19;;;;;;;;;18.50;16.00;;;;;18.64;80.34;102383.38;5136496;27;72313;-80
2022/10/18 07:35:45;;;;;;;;;15.25;12.75;;;;;18.70;80.29;102383.16;5139867;27;45340;-80
2022/10/18 07:38:11;;;;;;;;;17.75;15.50;;;;;18.76;80.19;102388.19;5139845;27;45366;-80
2022/10/18 07:40:36;;;;;;;;;14.50;11.25;;;;;18.81;79.93;102393.31;5120338;27;67735;-80
2022/10/18 07:43:02;;;;;;;;;13.25;13.25;;;;;18.86;79.95;102394.00;5139245;27;53982;-80
2022/10/18 07:45:27;;;;;;;;;13.75;13.00;;;;;18.90;79.88;102398.25;5120960;27;45246;-79
2022/10/18 07:47:56;;;;;;;;;17.50;10.75;;;;;18.92;79.83;102406.13;5139119;27;61009;-80
2022/10/18 07:50:22;;;;;;;;;15.50;13.25;;;;;18.93;79.45;102407.84;5138914;27;46559;-81
2022/10/18 07:52:47;;;;;;;;;16.25;11.75;;;;;18.96;79.74;102397.16;5138556;27;45390;-81
2022/10/18 07:55:13;;;;;;;;;13.00;9.75;;;;;18.99;79.88;102401.47;5138265;27;62775;-81
2022/10/18 07:57:38;;;;;;;;;12.50;12.50;;;;;19.03;79.77;102405.72;5136083;27;45412;-81
2022/10/18 08:00:04;;;;;;;;;15.50;14.50;;;;;19.04;79.38;102408.31;5136252;27;71193;-80
2022/10/18 08:02:30;;;;;;;;;12.25;11.25;;;;;19.07;79.47;102410.81;5137729;27;45527;-81
2022/10/18 08:04:55;;;;;;;;;16.25;12.00;;;;;19.10;79.42;102405.41;5137560;27;59572;-81
2022/10/18 08:07:20;;;;;;;;;15.50;14.75;;;;;19.13;79.33;102410.59;5138163;27;53884;-81
2022/10/18 08:09:46;;;;;;;;;17.00;15.00;;;;;19.17;79.04;102418.38;5138083;27;46949;-81
2022/10/18 08:12:11;;;;;;;;;16.00;12.75;;;;;19.19;79.32;102427.97;5137523;27;68132;-81
2022/10/18 08:14:37;;;;;;;;;11.00;9.00;;;;;19.19;79.32;102429.75;5119335;27;45391;-81
2022/10/18 08:17:02;;;;;;;;;17.50;14.50;;;;;19.20;79.51;102424.38;5119333;27;51154;-81
2022/10/18 08:19:27;;;;;;;;;14.00;14.00;;;;;19.22;78.88;102433.09;5118309;27;62233;-81
2022/10/18 08:21:52;;;;;;;;;18.25;14.00;;;;;19.24;78.89;102435.69;5152779;27;68289;-81
2022/10/18 08:24:18;;;;;;;;;16.75;13.00;;;;;19.26;78.64;102434.72;5154304;27;63449;-81
2022/10/18 08:26:43;;;;;;;;;14.25;10.75;;;;;19.27;78.52;102447.00;5106562;27;69185;-81
2022/10/18 08:29:09;;;;;;;;;13.25;11.00;;;;;19.29;78.59;102439.03;5101181;27;59750;-81
2022/10/18 08:31:35;;;;;;;;;14.50;11.25;;;;;19.32;78.63;102442.41;5119479;27;45575;-81
2022/10/18 08:34:00;;;;;;;;;14.50;14.25;;;;;19.40;78.42;102443.91;5136928;27;63576;-81
2022/10/18 08:36:25;;;;;;;;;19.50;12.00;;;;;19.45;78.29;102448.06;5138028;27;45277;-81
2022/10/18 08:38:51;;;;;;;;;14.50;12.25;;;;;19.50;78.52;102446.13;5136302;27;62243;-81
2022/10/18 08:41:28;;;;;;;;;14.75;12.25;;;;;19.56;78.34;102447.66;5137197;27;45416;-81
2022/10/18 08:44:20;;;;;;;;;13.00;12.00;;;;;19.65;78.23;102442.00;5136982;27;45354;-81
2022/10/18 08:46:48;;;;;;;;;8.75;8.50;;;;;19.69;77.34;102445.38;5107342;27;45344;-81
2022/10/18 08:49:27;;;;;;;;;9.00;8.75;;;;;19.71;77.31;102448.81;5118740;27;46371;-81
2022/10/18 08:51:54;;;;;;;;;13.50;10.75;;;;;19.78;77.90;102447.69;5118973;27;45667;-81
2022/10/18 08:54:25;;;;;;;;;14.50;9.75;;;;;19.82;77.13;102451.91;5122687;27;45432;-81
2022/10/18 08:56:58;;;;;;;;;11.00;11.00;;;;;19.83;76.35;102443.06;5139429;27;45570;-81
2022/10/18 08:59:24;;;;;;;;;12.50;8.75;;;;;19.81;76.95;102441.41;5157979;27;45533;-80
2022/10/18 09:02:10;;;;;;;;;13.75;11.25;;;;;19.81;76.70;102436.97;5123664;27;45327;-81
2022/10/18 09:04:50;;;;;;;;;9.00;8.75;;;;;19.89;76.73;102431.38;5120218;27;45456;-80
2022/10/18 09:07:35;;;;;;;;;10.75;10.75;;;;;19.90;76.44;102439.25;5137298;27;45443;-80
2022/10/18 09:10:17;;;;;;;;;12.00;12.00;;;;;19.87;76.61;102428.81;5116429;27;46240;-81
2022/10/18 09:12:57;;;;;;;;;11.75;10.00;;;;;19.89;76.43;102444.59;5098059;27;45742;-80
2022/10/18 09:16:04;;;;;;;;;14.25;10.50;;;;;19.89;76.18;102436.66;5137942;27;45383;-80
2022/10/18 09:18:29;;;;;;;;;14.50;12.00;;;;;19.89;76.32;102437.53;5124057;27;45852;-81
2022/10/18 09:20:59;;;;;;;;;13.33;12.00;;;;;19.91;76.14;102433.06;5126944;27;46370;-80
2022/10/18 09:23:43;;;;;;;;;12.00;10.75;;;;;19.99;76.01;102432.72;5098421;27;45382;-80
2022/10/18 09:26:21;;;;;;;;;14.00;11.00;;;;;20.07;76.04;102429.75;5116710;27;45417;-80
2022/10/18 09:29:02;;;;;;;;;16.50;11.50;;;;;20.10;75.77;102435.78;5097825;27;45411;-80
2022/10/18 09:31:48;;;;;;;;;11.50;8.75;;;;;20.11;75.25;102442.78;5098016;27;47282;-80
2022/10/18 09:34:38;;;;;;;;;9.75;8.75;;;;;20.16;75.37;102442.59;5106186;27;45785;-80
2022/10/18 09:37:03;;;;;;;;;11.00;11.00;;;;;20.20;75.70;102433.59;4998251;28;45354;-81
2022/10/18 09:39:34;;;;;;;;;10.75;10.00;;;;;20.21;74.70;102432.69;5012913;28;45651;-80
2022/10/18 09:42:05;;;;;;;;;10.00;9.75;;;;;20.16;74.58;102434.66;4996098;28;46184;-80
2022/10/18 09:44:39;;;;;;;;;6.50;6.25;;;;;20.18;74.73;102429.31;5013116;28;45421;-80
2022/10/18 09:47:20;;;;;;;;;8.00;6.50;;;;;20.27;74.54;102429.75;4996787;28;45541;-81
2022/10/18 09:49:51;;;;;;;;;9.75;8.75;;;;;20.34;74.40;102437.44;4996904;28;45362;-80
2022/10/18 09:52:33;;;;;;;;;13.00;8.75;;;;;20.41;74.59;102436.22;4996261;28;46476;-82
2022/10/18 09:55:04;;;;;;;;;13.00;9.00;;;;;20.50;73.10;102435.84;4996455;28;45548;-81
2022/10/18 09:57:45;;;;;;;;;10.50;9.50;;;;;20.59;73.87;102435.44;4996174;28;45605;-81
2022/10/18 10:00:25;;;;;;;;;11.75;11.75;;;;;20.71;73.50;102442.00;4996597;28;45394;-81
2022/10/18 10:02:50;;;;;;;;;10.75;10.25;;;;;20.82;73.27;102438.84;4996355;28;46402;-79
2022/10/18 10:05:15;;;;;;;;;12.00;12.00;;;;;20.91;73.30;102446.38;5032858;28;45384;-82
2022/10/18 10:07:44;;;;;;;;;13.00;12.00;;;;;20.98;73.12;102445.19;5032922;28;45512;-81
2022/10/18 10:10:29;;;;;;;;;13.50;11.00;;;;;21.09;72.60;102447.34;5016042;28;45530;-81
2022/10/18 10:13:21;;;;;;;;;12.50;12.50;;;;;21.07;72.01;102447.41;5016196;27;47364;-81
2022/10/18 10:15:53;;;;;;;;;11.50;11.50;;;;;21.04;72.25;102449.34;5099571;27;45658;-81
2022/10/18 10:18:21;;;;;;;;;12.25;11.00;;;;;21.02;72.40;102448.53;5099313;27;45457;-81
2022/10/18 10:20:52;;;;;;;;;9.00;9.00;;;;;20.97;72.53;102443.47;5099060;27;45339;-81
2022/10/18 10:23:35;;;;;;;;;9.00;9.00;;;;;20.91;72.17;102442.88;5080903;27;45336;-82
2022/10/18 10:26:04;;;;;;;;;7.25;6.00;;;;;20.88;72.46;102449.19;5098881;27;45556;-82
2022/10/18 10:28:33;;;;;;;;;9.75;7.50;;;;;20.97;72.49;102450.53;5080925;27;45549;-81
2022/10/18 10:31:22;;;;;;;;;9.25;7.25;;;;;21.10;72.33;102445.53;5098996;27;45499;-81
2022/10/18 10:33:47;;;;;;;;;7.75;7.50;;;;;21.18;72.04;102451.34;5104965;27;46160;-81
2022/10/18 10:36:18;;;;;;;;;7.00;7.00;;;;;21.23;71.83;102446.72;5101111;27;45440;-82
2022/10/18 10:38:44;;;;;;;;;10.50;9.50;;;;;21.36;71.29;102452.25;5113526;27;45344;-80
2022/10/18 10:41:22;;;;;;;;;8.50;8.50;;;;;21.47;70.75;102444.72;5099692;27;52982;-80
2022/10/18 10:43:49;;;;;;;;;9.25;7.00;;;;;21.62;70.97;102448.44;5065456;27;73259;-80
2022/10/18 10:46:17;;;;;;;;;7.00;7.00;;;;;21.74;71.02;102442.50;5080267;27;45754;-80
2022/10/18 10:48:48;;;;;;;;;11.00;8.00;;;;;21.86;70.42;102446.38;5080796;27;45496;-79
2022/10/18 10:51:36;;;;;;;;;9.25;8.00;;;;;21.82;69.44;102442.13;5081182;27;45381;-79
2022/10/18 10:54:07;;;;;;;;;9.75;7.75;;;;;21.68;69.69;102444.63;5098076;27;46334;-80
2022/10/18 10:56:35;;;;;;;;;9.00;8.25;;;;;21.54;69.70;102442.63;5099825;27;45490;-80
2022/10/18 10:59:07;;;;;;;;;11.00;9.25;;;;;21.55;70.18;102441.69;5079686;27;45398;-80
2022/10/18 11:01:33;;;;;;;;;8.25;7.25;;;;;21.59;69.97;102435.31;5083709;27;46151;-82
2022/10/18 11:04:02;;;;;;;;;9.50;8.75;;;;;21.66;70.20;102431.44;5084995;27;46107;-78
2022/10/18 11:06:32;;;;;;;;;9.00;8.75;;;;;21.76;69.88;102435.34;5101007;27;45475;-80
2022/10/18 11:09:00;;;;;;;;;8.00;8.00;;;;;21.80;69.52;102428.97;5094776;27;45266;-80
2022/10/18 11:11:31;;;;;;;;;8.50;6.25;;;;;21.82;69.56;102436.81;5103383;27;45407;-78
2022/10/18 11:14:12;;;;;;;;;7.75;7.75;;;;;21.79;69.50;102427.25;5122873;27;47455;-81
2022/10/18 11:16:55;;;;;;;;;10.25;8.75;;;;;21.75;70.13;102436.28;5107063;27;45784;-81
2022/10/18 11:20:05;;;;;;;;;8.75;7.75;;;;;21.86;69.94;102417.22;5110826;27;45660;-81